sensor_id;sensor_type;location;lat;lon;timestamp;temperature;humidity
27896;DHT22;15241;48.374;10.876;2023-02-18T00:01:43;11.50;99.90
27896;DHT22;15241;48.374;10.876;2023-02-18T00:06:42;11.60;99.90
27896;DHT22;15241;48.374;10.876;2023-02-18T00:11:41;11.60;99.90
27896;DHT22;15241;48.374;10.876;2023-02-18T00:16:40;11.60;99.90
27896;DHT22;15241;48.374;10.876;2023-02-18T00:21:39;11.60;99.90
27896;DHT22;15241;48.374;10.876;2023-02-18T00:26:38;11.70;99.90
27896;DHT22;15241;48.374;10.876;2023-02-18T00:31:39;11.70;99.90
27896;DHT22;15241;48.374;10.876;2023-02-18T00:36:38;11.80;99.90
27896;DHT22;15241;48.374;10.876;2023-02-18T00:41:38;11.80;99.90
27896;DHT22;15241;48.374;10.876;2023-02-18T00:46:37;11.90;99.90
27896;DHT22;15241;48.374;10.876;2023-02-18T00:51:36;11.90;99.90
27896;DHT22;15241;48.374;10.876;2023-02-18T00:56:35;11.90;99.90
27896;DHT22;15241;48.374;10.876;2023-02-18T01:01:34;11.90;99.90
27896;DHT22;15241;48.374;10.876;2023-02-18T01:06:33;11.90;99.90
27896;DHT22;15241;48.374;10.876;2023-02-18T01:11:32;12.00;99.90
27896;DHT22;15241;48.374;10.876;2023-02-18T01:16:31;12.00;99.90
27896;DHT22;15241;48.374;10.876;2023-02-18T01:21:30;12.00;99.90
27896;DHT22;15241;48.374;10.876;2023-02-18T01:26:29;12.00;99.90
27896;DHT22;15241;48.374;10.876;2023-02-18T01:31:28;11.90;99.90
27896;DHT22;15241;48.374;10.876;2023-02-18T01:36:27;11.80;99.90
27896;DHT22;15241;48.374;10.876;2023-02-18T01:41:26;11.90;99.90
27896;DHT22;15241;48.374;10.876;2023-02-18T01:46:25;11.80;99.90
27896;DHT22;15241;48.374;10.876;2023-02-18T01:56:35;11.90;99.90
27896;DHT22;15241;48.374;10.876;2023-02-18T02:01:35;11.90;99.90
27896;DHT22;15241;48.374;10.876;2023-02-18T02:06:34;11.90;99.90
27896;DHT22;15241;48.374;10.876;2023-02-18T02:11:47;11.80;99.90
27896;DHT22;15241;48.374;10.876;2023-02-18T02:16:51;11.80;99.90
27896;DHT22;15241;48.374;10.876;2023-02-18T02:27:50;11.80;99.90
27896;DHT22;15241;48.374;10.876;2023-02-18T02:33:40;11.70;99.90
27896;DHT22;15241;48.374;10.876;2023-02-18T02:38:41;11.70;99.90
27896;DHT22;15241;48.374;10.876;2023-02-18T02:43:43;11.60;99.90
27896;DHT22;15241;48.374;10.876;2023-02-18T02:48:46;11.70;99.90
27896;DHT22;15241;48.374;10.876;2023-02-18T02:53:45;11.70;99.90
27896;DHT22;15241;48.374;10.876;2023-02-18T02:58:45;11.70;99.90
27896;DHT22;15241;48.374;10.876;2023-02-18T03:04:01;11.60;99.90
27896;DHT22;15241;48.374;10.876;2023-02-18T03:09:03;11.60;99.90
27896;DHT22;15241;48.374;10.876;2023-02-18T03:14:06;11.60;99.90
27896;DHT22;15241;48.374;10.876;2023-02-18T03:19:09;11.60;99.90
27896;DHT22;15241;48.374;10.876;2023-02-18T03:24:12;11.60;99.90
27896;DHT22;15241;48.374;10.876;2023-02-18T03:29:14;11.60;99.90
27896;DHT22;15241;48.374;10.876;2023-02-18T03:34:15;11.50;99.90
27896;DHT22;15241;48.374;10.876;2023-02-18T03:39:16;11.50;99.90
27896;DHT22;15241;48.374;10.876;2023-02-18T03:44:15;11.50;99.90
27896;DHT22;15241;48.374;10.876;2023-02-18T03:49:15;11.50;99.90
27896;DHT22;15241;48.374;10.876;2023-02-18T03:54:14;11.40;99.90
27896;DHT22;15241;48.374;10.876;2023-02-18T03:59:13;11.50;99.90
27896;DHT22;15241;48.374;10.876;2023-02-18T04:04:12;11.60;99.90
27896;DHT22;15241;48.374;10.876;2023-02-18T04:09:10;11.50;99.90
27896;DHT22;15241;48.374;10.876;2023-02-18T04:14:10;11.60;99.90
27896;DHT22;15241;48.374;10.876;2023-02-18T04:19:10;11.60;99.90
27896;DHT22;15241;48.374;10.876;2023-02-18T04:24:09;11.60;99.90
27896;DHT22;15241;48.374;10.876;2023-02-18T04:29:08;11.60;99.90
27896;DHT22;15241;48.374;10.876;2023-02-18T04:34:07;11.50;99.90
27896;DHT22;15241;48.374;10.876;2023-02-18T04:39:06;11.50;99.90
27896;DHT22;15241;48.374;10.876;2023-02-18T04:44:05;11.50;99.90
27896;DHT22;15241;48.374;10.876;2023-02-18T04:49:04;11.50;99.90
27896;DHT22;15241;48.374;10.876;2023-02-18T04:54:04;11.50;99.90
27896;DHT22;15241;48.374;10.876;2023-02-18T04:59:03;11.50;99.90
27896;DHT22;15241;48.374;10.876;2023-02-18T05:04:02;11.50;99.90
27896;DHT22;15241;48.374;10.876;2023-02-18T05:09:01;11.50;99.90
27896;DHT22;15241;48.374;10.876;2023-02-18T05:14:00;11.50;99.90
27896;DHT22;15241;48.374;10.876;2023-02-18T05:18:59;11.40;99.90
27896;DHT22;15241;48.374;10.876;2023-02-18T05:23:58;11.40;99.90
27896;DHT22;15241;48.374;10.876;2023-02-18T05:28:56;11.40;99.90
27896;DHT22;15241;48.374;10.876;2023-02-18T05:33:55;11.50;99.90
27896;DHT22;15241;48.374;10.876;2023-02-18T05:38:54;11.50;99.90
27896;DHT22;15241;48.374;10.876;2023-02-18T05:43:53;11.40;99.90
27896;DHT22;15241;48.374;10.876;2023-02-18T05:48:52;11.50;99.90
27896;DHT22;15241;48.374;10.876;2023-02-18T05:53:53;11.40;99.90
27896;DHT22;15241;48.374;10.876;2023-02-18T05:58:52;11.40;99.90
27896;DHT22;15241;48.374;10.876;2023-02-18T06:03:50;11.40;99.90
27896;DHT22;15241;48.374;10.876;2023-02-18T06:08:49;11.40;99.90
27896;DHT22;15241;48.374;10.876;2023-02-18T06:13:48;11.40;99.90
27896;DHT22;15241;48.374;10.876;2023-02-18T06:18:47;11.30;99.90
27896;DHT22;15241;48.374;10.876;2023-02-18T06:23:46;11.30;99.90
27896;DHT22;15241;48.374;10.876;2023-02-18T06:28:45;11.10;99.90
27896;DHT22;15241;48.374;10.876;2023-02-18T06:33:44;11.30;99.90
27896;DHT22;15241;48.374;10.876;2023-02-18T06:38:44;11.20;99.90
27896;DHT22;15241;48.374;10.876;2023-02-18T06:43:43;11.30;99.90
27896;DHT22;15241;48.374;10.876;2023-02-18T06:48:42;11.30;99.90
27896;DHT22;15241;48.374;10.876;2023-02-18T06:53:41;11.30;99.90
27896;DHT22;15241;48.374;10.876;2023-02-18T06:58:40;11.40;99.90
27896;DHT22;15241;48.374;10.876;2023-02-18T07:03:39;11.30;99.90
27896;DHT22;15241;48.374;10.876;2023-02-18T07:08:38;11.40;99.90
27896;DHT22;15241;48.374;10.876;2023-02-18T07:13:37;11.40;99.90
27896;DHT22;15241;48.374;10.876;2023-02-18T07:18:36;11.40;99.90
27896;DHT22;15241;48.374;10.876;2023-02-18T07:23:35;11.40;99.90
27896;DHT22;15241;48.374;10.876;2023-02-18T07:28:34;11.50;99.90
27896;DHT22;15241;48.374;10.876;2023-02-18T07:33:32;11.50;99.90
27896;DHT22;15241;48.374;10.876;2023-02-18T07:38:31;11.60;99.90
27896;DHT22;15241;48.374;10.876;2023-02-18T07:43:30;11.60;99.90
27896;DHT22;15241;48.374;10.876;2023-02-18T07:48:29;11.70;99.90
27896;DHT22;15241;48.374;10.876;2023-02-18T07:53:28;11.80;99.90
27896;DHT22;15241;48.374;10.876;2023-02-18T07:58:30;11.70;99.90
27896;DHT22;15241;48.374;10.876;2023-02-18T08:03:30;11.80;99.90
27896;DHT22;15241;48.374;10.876;2023-02-18T08:08:30;11.90;99.90
27896;DHT22;15241;48.374;10.876;2023-02-18T08:13:29;12.00;99.90
27896;DHT22;15241;48.374;10.876;2023-02-18T08:18:28;12.00;99.90
27896;DHT22;15241;48.374;10.876;2023-02-18T08:23:27;12.00;99.90
27896;DHT22;15241;48.374;10.876;2023-02-18T08:28:27;12.10;99.90
27896;DHT22;15241;48.374;10.876;2023-02-18T08:33:26;12.20;99.90
27896;DHT22;15241;48.374;10.876;2023-02-18T08:38:25;12.30;99.90
27896;DHT22;15241;48.374;10.876;2023-02-18T08:43:24;12.40;99.90
27896;DHT22;15241;48.374;10.876;2023-02-18T08:48:23;12.40;99.90
27896;DHT22;15241;48.374;10.876;2023-02-18T08:53:22;12.50;99.90
27896;DHT22;15241;48.374;10.876;2023-02-18T08:58:21;12.60;99.90
27896;DHT22;15241;48.374;10.876;2023-02-18T09:03:25;12.60;99.90
27896;DHT22;15241;48.374;10.876;2023-02-18T09:08:25;12.60;99.90
27896;DHT22;15241;48.374;10.876;2023-02-18T09:13:24;12.60;99.90
27896;DHT22;15241;48.374;10.876;2023-02-18T09:18:23;12.70;99.90
27896;DHT22;15241;48.374;10.876;2023-02-18T09:23:22;12.90;99.90
27896;DHT22;15241;48.374;10.876;2023-02-18T09:28:21;13.10;99.90
27896;DHT22;15241;48.374;10.876;2023-02-18T09:33:20;13.30;99.90
27896;DHT22;15241;48.374;10.876;2023-02-18T09:38:20;13.50;99.90
27896;DHT22;15241;48.374;10.876;2023-02-18T09:43:23;13.70;99.90
27896;DHT22;15241;48.374;10.876;2023-02-18T09:53:33;14.10;99.90
27896;DHT22;15241;48.374;10.876;2023-02-18T09:58:33;14.40;99.90
27896;DHT22;15241;48.374;10.876;2023-02-18T10:03:32;14.70;99.90
27896;DHT22;15241;48.374;10.876;2023-02-18T10:08:33;15.10;99.90
27896;DHT22;15241;48.374;10.876;2023-02-18T10:13:34;15.00;99.90
27896;DHT22;15241;48.374;10.876;2023-02-18T10:18:36;14.60;99.90
27896;DHT22;15241;48.374;10.876;2023-02-18T10:23:37;14.70;99.90
27896;DHT22;15241;48.374;10.876;2023-02-18T10:28:37;15.00;99.90
27896;DHT22;15241;48.374;10.876;2023-02-18T10:33:41;15.00;99.90
27896;DHT22;15241;48.374;10.876;2023-02-18T10:38:43;14.80;99.90
27896;DHT22;15241;48.374;10.876;2023-02-18T10:43:44;15.00;99.90
27896;DHT22;15241;48.374;10.876;2023-02-18T10:48:55;15.00;99.90
27896;DHT22;15241;48.374;10.876;2023-02-18T10:53:55;15.50;99.90
27896;DHT22;15241;48.374;10.876;2023-02-18T10:58:58;16.30;99.90
27896;DHT22;15241;48.374;10.876;2023-02-18T11:04:12;16.60;99.90
27896;DHT22;15241;48.374;10.876;2023-02-18T11:09:31;17.50;99.90
27896;DHT22;15241;48.374;10.876;2023-02-18T11:14:39;17.90;99.90
27896;DHT22;15241;48.374;10.876;2023-02-18T11:19:39;18.20;99.90
27896;DHT22;15241;48.374;10.876;2023-02-18T11:24:39;18.30;99.90
27896;DHT22;15241;48.374;10.876;2023-02-18T11:29:38;17.20;99.90
27896;DHT22;15241;48.374;10.876;2023-02-18T11:34:37;16.60;99.90
27896;DHT22;15241;48.374;10.876;2023-02-18T11:39:41;16.50;99.90
27896;DHT22;15241;48.374;10.876;2023-02-18T11:44:48;16.40;99.90
27896;DHT22;15241;48.374;10.876;2023-02-18T11:49:44;16.00;99.90
27896;DHT22;15241;48.374;10.876;2023-02-18T11:54:58;15.80;99.90
27896;DHT22;15241;48.374;10.876;2023-02-18T11:59:58;15.90;99.90
27896;DHT22;15241;48.374;10.876;2023-02-18T12:05:00;15.80;99.90
27896;DHT22;15241;48.374;10.876;2023-02-18T12:10:03;15.50;99.90
27896;DHT22;15241;48.374;10.876;2023-02-18T12:15:02;15.50;99.90
27896;DHT22;15241;48.374;10.876;2023-02-18T12:20:26;16.30;99.90
27896;DHT22;15241;48.374;10.876;2023-02-18T12:25:34;16.30;99.90
27896;DHT22;15241;48.374;10.876;2023-02-18T12:30:45;18.20;99.90
27896;DHT22;15241;48.374;10.876;2023-02-18T12:35:51;17.60;99.90
27896;DHT22;15241;48.374;10.876;2023-02-18T12:40:58;19.40;99.90
27896;DHT22;15241;48.374;10.876;2023-02-18T12:46:09;19.10;99.90
27896;DHT22;15241;48.374;10.876;2023-02-18T12:51:19;18.30;99.90
27896;DHT22;15241;48.374;10.876;2023-02-18T13:02:05;17.20;99.90
27896;DHT22;15241;48.374;10.876;2023-02-18T13:07:29;17.10;99.90
27896;DHT22;15241;48.374;10.876;2023-02-18T13:12:33;16.70;99.90
27896;DHT22;15241;48.374;10.876;2023-02-18T13:17:33;16.60;99.90
27896;DHT22;15241;48.374;10.876;2023-02-18T13:22:34;16.40;99.90
27896;DHT22;15241;48.374;10.876;2023-02-18T13:27:36;16.00;99.90
27896;DHT22;15241;48.374;10.876;2023-02-18T13:32:37;15.70;99.90
27896;DHT22;15241;48.374;10.876;2023-02-18T13:37:40;15.60;99.90
27896;DHT22;15241;48.374;10.876;2023-02-18T13:42:39;15.40;99.90
27896;DHT22;15241;48.374;10.876;2023-02-18T13:47:39;15.20;99.90
27896;DHT22;15241;48.374;10.876;2023-02-18T13:52:39;15.10;99.90
27896;DHT22;15241;48.374;10.876;2023-02-18T13:57:39;15.10;99.90
27896;DHT22;15241;48.374;10.876;2023-02-18T14:02:40;15.30;99.90
27896;DHT22;15241;48.374;10.876;2023-02-18T14:07:48;15.20;99.90
27896;DHT22;15241;48.374;10.876;2023-02-18T14:13:01;15.20;99.90
27896;DHT22;15241;48.374;10.876;2023-02-18T14:18:19;15.50;99.90
27896;DHT22;15241;48.374;10.876;2023-02-18T14:28:42;18.40;99.90
27896;DHT22;15241;48.374;10.876;2023-02-18T14:33:44;19.70;99.90
27896;DHT22;15241;48.374;10.876;2023-02-18T14:38:46;18.40;99.90
27896;DHT22;15241;48.374;10.876;2023-02-18T14:44:01;17.60;99.90
27896;DHT22;15241;48.374;10.876;2023-02-18T14:49:05;17.70;99.90
27896;DHT22;15241;48.374;10.876;2023-02-18T14:54:10;17.30;99.90
27896;DHT22;15241;48.374;10.876;2023-02-18T14:59:07;16.80;99.90
27896;DHT22;15241;48.374;10.876;2023-02-18T15:04:10;16.70;99.90
27896;DHT22;15241;48.374;10.876;2023-02-18T15:09:14;16.30;99.90
27896;DHT22;15241;48.374;10.876;2023-02-18T15:14:17;16.20;99.90
27896;DHT22;15241;48.374;10.876;2023-02-18T15:19:16;16.00;99.90
27896;DHT22;15241;48.374;10.876;2023-02-18T15:24:22;15.60;99.90
27896;DHT22;15241;48.374;10.876;2023-02-18T15:29:24;15.40;99.90
27896;DHT22;15241;48.374;10.876;2023-02-18T15:34:32;15.30;99.90
27896;DHT22;15241;48.374;10.876;2023-02-18T15:39:32;14.90;99.90
27896;DHT22;15241;48.374;10.876;2023-02-18T15:44:33;15.90;99.90
27896;DHT22;15241;48.374;10.876;2023-02-18T15:49:33;15.80;99.90
27896;DHT22;15241;48.374;10.876;2023-02-18T15:54:32;15.50;99.90
27896;DHT22;15241;48.374;10.876;2023-02-18T15:59:34;15.30;99.90
27896;DHT22;15241;48.374;10.876;2023-02-18T16:04:37;15.30;99.90
27896;DHT22;15241;48.374;10.876;2023-02-18T16:09:38;14.90;99.90
27896;DHT22;15241;48.374;10.876;2023-02-18T16:14:41;14.70;99.90
27896;DHT22;15241;48.374;10.876;2023-02-18T16:19:46;14.40;99.90
27896;DHT22;15241;48.374;10.876;2023-02-18T16:24:47;14.30;99.90
27896;DHT22;15241;48.374;10.876;2023-02-18T16:29:49;14.20;99.90
27896;DHT22;15241;48.374;10.876;2023-02-18T16:34:48;14.00;99.90
27896;DHT22;15241;48.374;10.876;2023-02-18T16:39:49;13.90;99.90
27896;DHT22;15241;48.374;10.876;2023-02-18T16:44:48;13.70;99.90
27896;DHT22;15241;48.374;10.876;2023-02-18T16:49:48;13.60;99.90
27896;DHT22;15241;48.374;10.876;2023-02-18T16:54:49;13.50;99.90
27896;DHT22;15241;48.374;10.876;2023-02-18T16:59:48;13.30;99.90
27896;DHT22;15241;48.374;10.876;2023-02-18T17:04:46;13.20;99.90
27896;DHT22;15241;48.374;10.876;2023-02-18T17:09:45;13.20;99.90
27896;DHT22;15241;48.374;10.876;2023-02-18T17:14:44;13.20;99.90
27896;DHT22;15241;48.374;10.876;2023-02-18T17:19:43;13.10;99.90
27896;DHT22;15241;48.374;10.876;2023-02-18T17:24:42;13.00;99.90
27896;DHT22;15241;48.374;10.876;2023-02-18T17:34:48;12.90;99.90
27896;DHT22;15241;48.374;10.876;2023-02-18T17:39:47;12.80;99.90
27896;DHT22;15241;48.374;10.876;2023-02-18T17:44:46;12.80;99.90
27896;DHT22;15241;48.374;10.876;2023-02-18T17:49:45;12.70;99.90
27896;DHT22;15241;48.374;10.876;2023-02-18T17:54:44;12.60;99.90
27896;DHT22;15241;48.374;10.876;2023-02-18T17:59:43;12.60;99.90
27896;DHT22;15241;48.374;10.876;2023-02-18T18:04:41;12.60;99.90
27896;DHT22;15241;48.374;10.876;2023-02-18T18:09:40;12.50;99.90
27896;DHT22;15241;48.374;10.876;2023-02-18T18:14:39;12.50;99.90
27896;DHT22;15241;48.374;10.876;2023-02-18T18:19:38;12.50;99.90
27896;DHT22;15241;48.374;10.876;2023-02-18T18:24:37;12.40;99.90
27896;DHT22;15241;48.374;10.876;2023-02-18T18:29:36;12.40;99.90
27896;DHT22;15241;48.374;10.876;2023-02-18T18:34:35;12.40;99.90
27896;DHT22;15241;48.374;10.876;2023-02-18T18:39:34;12.30;99.90
27896;DHT22;15241;48.374;10.876;2023-02-18T18:44:33;12.30;99.90
27896;DHT22;15241;48.374;10.876;2023-02-18T18:49:32;12.30;99.90
27896;DHT22;15241;48.374;10.876;2023-02-18T18:54:31;12.30;99.90
27896;DHT22;15241;48.374;10.876;2023-02-18T18:59:29;12.20;99.90
27896;DHT22;15241;48.374;10.876;2023-02-18T19:04:28;12.20;99.90
27896;DHT22;15241;48.374;10.876;2023-02-18T19:09:27;12.20;99.90
27896;DHT22;15241;48.374;10.876;2023-02-18T19:14:26;12.30;99.90
27896;DHT22;15241;48.374;10.876;2023-02-18T19:19:25;12.20;99.90
27896;DHT22;15241;48.374;10.876;2023-02-18T19:24:24;12.40;99.90
27896;DHT22;15241;48.374;10.876;2023-02-18T19:29:23;12.30;99.90
27896;DHT22;15241;48.374;10.876;2023-02-18T19:34:22;12.30;99.90
27896;DHT22;15241;48.374;10.876;2023-02-18T19:39:21;12.30;99.90
27896;DHT22;15241;48.374;10.876;2023-02-18T19:44:20;12.30;99.90
27896;DHT22;15241;48.374;10.876;2023-02-18T19:49:19;12.20;99.90
27896;DHT22;15241;48.374;10.876;2023-02-18T19:54:18;12.30;99.90
27896;DHT22;15241;48.374;10.876;2023-02-18T19:59:17;12.20;99.90
27896;DHT22;15241;48.374;10.876;2023-02-18T20:04:16;12.20;99.90
27896;DHT22;15241;48.374;10.876;2023-02-18T20:09:15;12.30;99.90
27896;DHT22;15241;48.374;10.876;2023-02-18T20:14:15;12.30;99.90
27896;DHT22;15241;48.374;10.876;2023-02-18T20:19:14;12.30;99.90
27896;DHT22;15241;48.374;10.876;2023-02-18T20:24:15;12.30;99.90
27896;DHT22;15241;48.374;10.876;2023-02-18T20:29:14;12.30;99.90
27896;DHT22;15241;48.374;10.876;2023-02-18T20:34:13;12.30;99.90
27896;DHT22;15241;48.374;10.876;2023-02-18T20:39:12;12.20;99.90
27896;DHT22;15241;48.374;10.876;2023-02-18T20:44:12;12.30;99.90
27896;DHT22;15241;48.374;10.876;2023-02-18T20:49:13;12.20;99.90
27896;DHT22;15241;48.374;10.876;2023-02-18T20:54:14;12.20;99.90
27896;DHT22;15241;48.374;10.876;2023-02-18T20:59:14;12.20;99.90
27896;DHT22;15241;48.374;10.876;2023-02-18T21:04:15;12.20;99.90
27896;DHT22;15241;48.374;10.876;2023-02-18T21:09:15;12.20;99.90
27896;DHT22;15241;48.374;10.876;2023-02-18T21:14:15;12.20;99.90
27896;DHT22;15241;48.374;10.876;2023-02-18T21:19:15;12.20;99.90
27896;DHT22;15241;48.374;10.876;2023-02-18T21:24:16;12.20;99.90
27896;DHT22;15241;48.374;10.876;2023-02-18T21:29:15;12.20;99.90
27896;DHT22;15241;48.374;10.876;2023-02-18T21:34:15;12.10;99.90
27896;DHT22;15241;48.374;10.876;2023-02-18T21:39:14;12.10;99.90
27896;DHT22;15241;48.374;10.876;2023-02-18T21:44:13;12.10;99.90
27896;DHT22;15241;48.374;10.876;2023-02-18T21:49:12;12.10;99.90
27896;DHT22;15241;48.374;10.876;2023-02-18T21:54:11;12.10;99.90
27896;DHT22;15241;48.374;10.876;2023-02-18T21:59:11;12.10;99.90
27896;DHT22;15241;48.374;10.876;2023-02-18T22:04:10;12.00;99.90
27896;DHT22;15241;48.374;10.876;2023-02-18T22:09:10;12.10;99.90
27896;DHT22;15241;48.374;10.876;2023-02-18T22:14:10;12.20;99.90
27896;DHT22;15241;48.374;10.876;2023-02-18T22:19:11;12.10;99.90
27896;DHT22;15241;48.374;10.876;2023-02-18T22:24:12;12.10;99.90
27896;DHT22;15241;48.374;10.876;2023-02-18T22:29:13;12.10;99.90
27896;DHT22;15241;48.374;10.876;2023-02-18T22:34:12;12.00;99.90
27896;DHT22;15241;48.374;10.876;2023-02-18T22:39:12;12.00;99.90
27896;DHT22;15241;48.374;10.876;2023-02-18T22:44:14;11.90;99.90
27896;DHT22;15241;48.374;10.876;2023-02-18T22:49:13;11.90;99.90
27896;DHT22;15241;48.374;10.876;2023-02-18T22:54:13;11.80;99.90
27896;DHT22;15241;48.374;10.876;2023-02-18T22:59:15;11.80;99.90
27896;DHT22;15241;48.374;10.876;2023-02-18T23:04:15;11.80;99.90
27896;DHT22;15241;48.374;10.876;2023-02-18T23:09:16;11.90;99.90
27896;DHT22;15241;48.374;10.876;2023-02-18T23:14:16;11.80;99.90
27896;DHT22;15241;48.374;10.876;2023-02-18T23:19:14;11.90;99.90
27896;DHT22;15241;48.374;10.876;2023-02-18T23:24:13;11.90;99.90
27896;DHT22;15241;48.374;10.876;2023-02-18T23:29:12;11.90;99.90
27896;DHT22;15241;48.374;10.876;2023-02-18T23:34:13;11.80;99.90
27896;DHT22;15241;48.374;10.876;2023-02-18T23:39:15;11.70;99.90
27896;DHT22;15241;48.374;10.876;2023-02-18T23:44:16;11.80;99.90
27896;DHT22;15241;48.374;10.876;2023-02-18T23:49:17;11.80;99.90
27896;DHT22;15241;48.374;10.876;2023-02-18T23:54:17;11.80;99.90
27896;DHT22;15241;48.374;10.876;2023-02-18T23:59:16;11.70;99.90
